sensor_id;sensor_type;location;lat;lon;timestamp;pressure;altitude;pressure_sealevel;temperature;humidity
22181;BME280;11256;50.830;12.834;2024-02-15T00:02:13;97908.84;;;9.93;75.12
22181;BME280;11256;50.830;12.834;2024-02-15T00:07:14;97912.09;;;9.95;75.32
22181;BME280;11256;50.830;12.834;2024-02-15T00:12:15;97913.72;;;9.96;75.79
22181;BME280;11256;50.830;12.834;2024-02-15T00:17:16;97911.56;;;9.98;75.76
22181;BME280;11256;50.830;12.834;2024-02-15T00:22:17;97891.53;;;9.89;75.54
22181;BME280;11256;50.830;12.834;2024-02-15T00:27:19;97900.72;;;9.98;75.69
22181;BME280;11256;50.830;12.834;2024-02-15T00:32:21;97902.34;;;9.99;75.93
22181;BME280;11256;50.830;12.834;2024-02-15T00:37:22;97901.53;;;9.98;75.93
22181;BME280;11256;50.830;12.834;2024-02-15T00:42:23;97903.44;;;10.03;76.09
22181;BME280;11256;50.830;12.834;2024-02-15T00:47:24;97895.31;;;10.03;76.40
22181;BME280;11256;50.830;12.834;2024-02-15T00:52:25;97907.81;;;10.04;76.77
22181;BME280;11256;50.830;12.834;2024-02-15T00:57:26;97908.06;;;10.07;76.87
22181;BME280;11256;50.830;12.834;2024-02-15T01:02:27;97915.38;;;10.07;76.79
22181;BME280;11256;50.830;12.834;2024-02-15T01:07:29;97907.53;;;10.05;77.00
22181;BME280;11256;50.830;12.834;2024-02-15T01:12:31;97904.00;;;10.10;77.21
22181;BME280;11256;50.830;12.834;2024-02-15T01:17:32;97906.16;;;10.13;77.93
22181;BME280;11256;50.830;12.834;2024-02-15T01:22:33;97904.25;;;10.13;77.62
22181;BME280;11256;50.830;12.834;2024-02-15T01:27:33;97910.50;;;10.14;77.82
22181;BME280;11256;50.830;12.834;2024-02-15T01:32:35;97911.56;;;10.13;77.43
22181;BME280;11256;50.830;12.834;2024-02-15T01:37:36;97905.09;;;10.14;77.68
22181;BME280;11256;50.830;12.834;2024-02-15T01:42:37;97914.28;;;10.13;77.61
22181;BME280;11256;50.830;12.834;2024-02-15T01:47:39;97911.56;;;10.13;77.86
22181;BME280;11256;50.830;12.834;2024-02-15T01:52:45;97902.38;;;10.14;77.79
22181;BME280;11256;50.830;12.834;2024-02-15T01:57:48;97899.94;;;10.17;78.19
22181;BME280;11256;50.830;12.834;2024-02-15T02:02:49;97889.91;;;10.13;77.68
22181;BME280;11256;50.830;12.834;2024-02-15T02:07:51;97887.22;;;10.08;77.39
22181;BME280;11256;50.830;12.834;2024-02-15T02:12:52;97891.81;;;10.12;77.74
22181;BME280;11256;50.830;12.834;2024-02-15T02:17:53;97896.41;;;10.12;77.44
22181;BME280;11256;50.830;12.834;2024-02-15T02:23:00;97896.41;;;10.12;77.25
22181;BME280;11256;50.830;12.834;2024-02-15T02:28:03;97898.03;;;10.13;77.54
22181;BME280;11256;50.830;12.834;2024-02-15T02:33:04;97898.03;;;10.13;77.97
22181;BME280;11256;50.830;12.834;2024-02-15T02:38:07;97897.50;;;10.16;78.00
22181;BME280;11256;50.830;12.834;2024-02-15T02:43:08;97896.97;;;10.19;78.15
22181;BME280;11256;50.830;12.834;2024-02-15T02:48:10;97898.03;;;10.18;78.28
22181;BME280;11256;50.830;12.834;2024-02-15T02:53:11;97894.25;;;10.14;78.31
22181;BME280;11256;50.830;12.834;2024-02-15T02:58:14;97893.16;;;10.15;77.89
22181;BME280;11256;50.830;12.834;2024-02-15T03:03:15;97895.31;;;10.13;77.96
22181;BME280;11256;50.830;12.834;2024-02-15T03:08:16;97894.25;;;10.19;78.32
22181;BME280;11256;50.830;12.834;2024-02-15T03:13:17;97895.88;;;10.20;78.50
22181;BME280;11256;50.830;12.834;2024-02-15T03:18:19;97905.63;;;10.21;78.49
22181;BME280;11256;50.830;12.834;2024-02-15T03:23:20;97902.66;;;10.22;78.58
22181;BME280;11256;50.830;12.834;2024-02-15T03:28:21;97900.19;;;10.21;78.50
22181;BME280;11256;50.830;12.834;2024-02-15T03:33:23;97895.88;;;10.20;78.71
22181;BME280;11256;50.830;12.834;2024-02-15T03:38:27;97891.81;;;10.22;78.50
22181;BME280;11256;50.830;12.834;2024-02-15T03:43:29;97897.50;;;10.21;78.09
22181;BME280;11256;50.830;12.834;2024-02-15T03:48:30;97898.59;;;10.20;78.21
22181;BME280;11256;50.830;12.834;2024-02-15T03:53:32;97904.00;;;10.20;78.35
22181;BME280;11256;50.830;12.834;2024-02-15T03:58:34;97902.38;;;10.19;78.40
22181;BME280;11256;50.830;12.834;2024-02-15T04:03:37;97894.25;;;10.19;78.31
22181;BME280;11256;50.830;12.834;2024-02-15T04:08:38;97897.75;;;10.19;78.54
22181;BME280;11256;50.830;12.834;2024-02-15T04:13:40;97892.09;;;10.16;78.46
22181;BME280;11256;50.830;12.834;2024-02-15T04:18:43;97899.94;;;10.17;78.48
22181;BME280;11256;50.830;12.834;2024-02-15T04:23:46;97901.28;;;10.15;78.31
22181;BME280;11256;50.830;12.834;2024-02-15T04:28:47;97901.28;;;10.15;77.92
22181;BME280;11256;50.830;12.834;2024-02-15T04:33:49;97903.75;;;10.11;78.06
22181;BME280;11256;50.830;12.834;2024-02-15T04:38:51;97899.13;;;10.07;78.35
22181;BME280;11256;50.830;12.834;2024-02-15T04:43:52;97907.25;;;10.12;78.06
22181;BME280;11256;50.830;12.834;2024-02-15T04:48:53;97904.00;;;10.10;78.18
22181;BME280;11256;50.830;12.834;2024-02-15T04:53:55;97903.44;;;10.03;78.28
22181;BME280;11256;50.830;12.834;2024-02-15T04:58:58;97906.19;;;10.08;78.09
22181;BME280;11256;50.830;12.834;2024-02-15T05:03:58;97916.19;;;10.07;78.12
22181;BME280;11256;50.830;12.834;2024-02-15T05:08:59;97912.38;;;10.08;78.24
22181;BME280;11256;50.830;12.834;2024-02-15T05:14:04;97919.97;;;10.06;78.45
22181;BME280;11256;50.830;12.834;2024-02-15T05:19:09;97911.31;;;10.04;78.03
22181;BME280;11256;50.830;12.834;2024-02-15T05:24:14;97902.88;;;9.96;78.29
22181;BME280;11256;50.830;12.834;2024-02-15T05:29:15;97925.09;;;10.03;78.15
22181;BME280;11256;50.830;12.834;2024-02-15T05:34:17;97904.78;;;10.00;78.75
22181;BME280;11256;50.830;12.834;2024-02-15T05:39:18;97917.00;;;10.08;78.52
22181;BME280;11256;50.830;12.834;2024-02-15T05:44:22;97909.94;;;10.07;78.71
22181;BME280;11256;50.830;12.834;2024-02-15T05:49:23;97909.94;;;10.07;78.71
22181;BME280;11256;50.830;12.834;2024-02-15T05:54:25;97922.44;;;10.08;78.69
22181;BME280;11256;50.830;12.834;2024-02-15T05:59:26;97930.00;;;10.06;78.52
22181;BME280;11256;50.830;12.834;2024-02-15T06:04:27;97928.91;;;10.07;78.48
22181;BME280;11256;50.830;12.834;2024-02-15T06:09:30;97915.88;;;9.99;79.10
22181;BME280;11256;50.830;12.834;2024-02-15T06:14:33;97939.72;;;10.07;78.88
22181;BME280;11256;50.830;12.834;2024-02-15T06:19:34;97934.06;;;10.08;79.05
22181;BME280;11256;50.830;12.834;2024-02-15T06:24:35;97936.50;;;10.10;78.93
22181;BME280;11256;50.830;12.834;2024-02-15T06:29:36;97944.88;;;10.08;79.14
22181;BME280;11256;50.830;12.834;2024-02-15T06:34:56;97941.91;;;10.05;78.92
22181;BME280;11256;50.830;12.834;2024-02-15T06:40:15;97944.88;;;10.08;78.98
22181;BME280;11256;50.830;12.834;2024-02-15T06:45:17;97944.88;;;10.08;79.25
22181;BME280;11256;50.830;12.834;2024-02-15T06:50:18;97953.28;;;10.12;79.41
22181;BME280;11256;50.830;12.834;2024-02-15T06:55:19;97954.88;;;10.13;79.10
22181;BME280;11256;50.830;12.834;2024-02-15T07:00:22;97952.47;;;10.06;79.44
22181;BME280;11256;50.830;12.834;2024-02-15T07:05:24;97966.53;;;10.13;79.31
22181;BME280;11256;50.830;12.834;2024-02-15T07:10:28;97959.50;;;10.17;79.79
22181;BME280;11256;50.830;12.834;2024-02-15T07:15:30;97947.84;;;10.17;79.98
22181;BME280;11256;50.830;12.834;2024-02-15T07:20:34;97949.78;;;10.21;80.08
22181;BME280;11256;50.830;12.834;2024-02-15T07:25:36;97960.31;;;10.28;79.96
22181;BME280;11256;50.830;12.834;2024-02-15T07:30:38;97953.81;;;10.34;80.75
22181;BME280;11256;50.830;12.834;2024-02-15T07:35:41;97949.47;;;10.53;80.96
22181;BME280;11256;50.830;12.834;2024-02-15T07:40:43;97962.41;;;10.91;83.17
22181;BME280;11256;50.830;12.834;2024-02-15T07:45:44;97949.72;;;11.40;83.04
22181;BME280;11256;50.830;12.834;2024-02-15T07:50:48;97948.97;;;11.83;82.50
22181;BME280;11256;50.830;12.834;2024-02-15T07:55:49;97939.94;;;12.26;81.64
22181;BME280;11256;50.830;12.834;2024-02-15T08:00:50;97949.19;;;12.82;81.27
22181;BME280;11256;50.830;12.834;2024-02-15T08:05:52;97946.28;;;13.44;80.15
22181;BME280;11256;50.830;12.834;2024-02-15T08:10:53;97949.13;;;13.76;77.87
22181;BME280;11256;50.830;12.834;2024-02-15T08:15:54;97951.34;;;14.11;77.27
22181;BME280;11256;50.830;12.834;2024-02-15T08:20:55;97939.91;;;14.59;77.04
22181;BME280;11256;50.830;12.834;2024-02-15T08:25:57;97935.53;;;15.04;75.49
22181;BME280;11256;50.830;12.834;2024-02-15T08:30:59;97942.91;;;15.30;74.60
22181;BME280;11256;50.830;12.834;2024-02-15T08:36:00;97945.84;;;15.96;73.92
22181;BME280;11256;50.830;12.834;2024-02-15T08:41:03;97941.34;;;16.14;72.50
22181;BME280;11256;50.830;12.834;2024-02-15T08:46:04;97943.81;;;16.02;71.31
22181;BME280;11256;50.830;12.834;2024-02-15T08:51:06;97943.44;;;15.81;71.50
22181;BME280;11256;50.830;12.834;2024-02-15T08:56:09;97916.53;;;15.53;71.31
22181;BME280;11256;50.830;12.834;2024-02-15T09:01:10;97936.88;;;15.47;71.74
22181;BME280;11256;50.830;12.834;2024-02-15T09:06:13;97934.22;;;15.28;72.01
22181;BME280;11256;50.830;12.834;2024-02-15T09:11:14;97944.63;;;15.13;72.14
22181;BME280;11256;50.830;12.834;2024-02-15T09:16:14;97941.28;;;15.02;72.57
22181;BME280;11256;50.830;12.834;2024-02-15T09:21:15;97952.78;;;14.86;72.59
22181;BME280;11256;50.830;12.834;2024-02-15T09:26:15;97951.44;;;14.70;72.99
22181;BME280;11256;50.830;12.834;2024-02-15T09:31:16;97946.28;;;14.55;73.12
22181;BME280;11256;50.830;12.834;2024-02-15T09:36:16;97950.28;;;14.44;73.51
22181;BME280;11256;50.830;12.834;2024-02-15T09:41:17;97959.19;;;14.31;73.75
22181;BME280;11256;50.830;12.834;2024-02-15T09:46:17;97955.66;;;14.12;73.62
22181;BME280;11256;50.830;12.834;2024-02-15T09:51:20;97950.88;;;14.04;73.79
22181;BME280;11256;50.830;12.834;2024-02-15T09:56:21;97953.47;;;13.95;73.97
22181;BME280;11256;50.830;12.834;2024-02-15T10:01:25;97947.59;;;13.88;74.64
22181;BME280;11256;50.830;12.834;2024-02-15T10:06:27;97957.38;;;13.89;75.31
22181;BME280;11256;50.830;12.834;2024-02-15T10:11:29;97952.28;;;13.83;75.17
22181;BME280;11256;50.830;12.834;2024-02-15T10:16:29;97954.78;;;13.79;75.62
22181;BME280;11256;50.830;12.834;2024-02-15T10:21:35;97958.91;;;13.77;75.43
22181;BME280;11256;50.830;12.834;2024-02-15T10:26:36;97971.72;;;13.76;75.77
22181;BME280;11256;50.830;12.834;2024-02-15T10:31:40;97966.63;;;13.70;76.04
22181;BME280;11256;50.830;12.834;2024-02-15T10:36:51;97956.03;;;13.68;75.79
22181;BME280;11256;50.830;12.834;2024-02-15T10:41:53;97938.97;;;13.63;76.08
22181;BME280;11256;50.830;12.834;2024-02-15T10:46:54;97942.13;;;13.70;76.52
22181;BME280;11256;50.830;12.834;2024-02-15T10:51:57;97939.41;;;13.70;76.25
22181;BME280;11256;50.830;12.834;2024-02-15T10:57:05;97943.22;;;13.69;76.44
22181;BME280;11256;50.830;12.834;2024-02-15T11:02:27;97944.03;;;13.69;76.37
22181;BME280;11256;50.830;12.834;2024-02-15T11:07:31;97939.69;;;13.68;76.65
22181;BME280;11256;50.830;12.834;2024-02-15T11:12:31;97923.63;;;13.67;76.59
22181;BME280;11256;50.830;12.834;2024-02-15T11:22:56;97918.66;;;13.74;76.95
22181;BME280;11256;50.830;12.834;2024-02-15T11:27:58;97915.31;;;13.77;77.13
22181;BME280;11256;50.830;12.834;2024-02-15T11:33:33;97906.50;;;13.85;77.49
22181;BME280;11256;50.830;12.834;2024-02-15T11:38:38;97910.25;;;13.89;77.92
22181;BME280;11256;50.830;12.834;2024-02-15T11:48:51;97896.81;;;14.11;77.92
22181;BME280;11256;50.830;12.834;2024-02-15T11:54:01;97896.06;;;14.24;78.16
22181;BME280;11256;50.830;12.834;2024-02-15T11:59:06;97899.13;;;14.36;77.98
22181;BME280;11256;50.830;12.834;2024-02-15T12:04:07;97893.38;;;14.37;78.04
22181;BME280;11256;50.830;12.834;2024-02-15T12:09:26;97889.28;;;14.53;78.04
22181;BME280;11256;50.830;12.834;2024-02-15T12:14:46;97878.97;;;14.64;77.99
22181;BME280;11256;50.830;12.834;2024-02-15T12:20:05;97882.03;;;14.76;77.91
22181;BME280;11256;50.830;12.834;2024-02-15T12:25:16;97872.22;;;14.88;78.16
22181;BME280;11256;50.830;12.834;2024-02-15T12:30:18;97876.56;;;15.03;78.20
22181;BME280;11256;50.830;12.834;2024-02-15T12:35:22;97871.72;;;15.13;77.86
22181;BME280;11256;50.830;12.834;2024-02-15T12:40:34;97866.84;;;15.24;77.89
22181;BME280;11256;50.830;12.834;2024-02-15T12:45:39;97867.69;;;15.38;77.81
22181;BME280;11256;50.830;12.834;2024-02-15T12:50:41;97855.53;;;15.44;76.79
22181;BME280;11256;50.830;12.834;2024-02-15T12:55:42;97847.13;;;15.40;77.20
22181;BME280;11256;50.830;12.834;2024-02-15T13:00:43;97858.13;;;15.49;76.78
22181;BME280;11256;50.830;12.834;2024-02-15T13:05:43;97854.78;;;15.52;76.79
22181;BME280;11256;50.830;12.834;2024-02-15T13:10:44;97856.31;;;15.58;76.96
22181;BME280;11256;50.830;12.834;2024-02-15T13:15:45;97858.88;;;15.63;76.84
22181;BME280;11256;50.830;12.834;2024-02-15T13:20:47;97854.63;;;15.70;77.19
22181;BME280;11256;50.830;12.834;2024-02-15T13:25:50;97851.97;;;15.79;77.10
22181;BME280;11256;50.830;12.834;2024-02-15T13:30:52;97844.63;;;15.88;76.57
22181;BME280;11256;50.830;12.834;2024-02-15T13:35:56;97843.59;;;15.97;76.60
22181;BME280;11256;50.830;12.834;2024-02-15T13:40:57;97838.28;;;16.01;75.29
22181;BME280;11256;50.830;12.834;2024-02-15T13:46:00;97844.41;;;15.98;75.29
22181;BME280;11256;50.830;12.834;2024-02-15T13:51:01;97843.75;;;16.01;75.26
22181;BME280;11256;50.830;12.834;2024-02-15T13:56:01;97840.25;;;16.00;74.86
22181;BME280;11256;50.830;12.834;2024-02-15T14:01:03;97832.81;;;16.01;74.82
22181;BME280;11256;50.830;12.834;2024-02-15T14:06:04;97834.47;;;16.02;74.86
22181;BME280;11256;50.830;12.834;2024-02-15T14:11:05;97827.34;;;16.01;74.37
22181;BME280;11256;50.830;12.834;2024-02-15T14:16:06;97825.56;;;15.96;74.44
22181;BME280;11256;50.830;12.834;2024-02-15T14:21:08;97831.34;;;15.95;74.45
22181;BME280;11256;50.830;12.834;2024-02-15T14:26:11;97822.53;;;15.98;74.21
22181;BME280;11256;50.830;12.834;2024-02-15T14:31:11;97812.72;;;15.97;74.23
22181;BME280;11256;50.830;12.834;2024-02-15T14:36:30;97810.47;;;15.99;74.45
22181;BME280;11256;50.830;12.834;2024-02-15T14:41:31;97819.22;;;16.09;74.55
22181;BME280;11256;50.830;12.834;2024-02-15T14:46:31;97812.81;;;16.14;74.89
22181;BME280;11256;50.830;12.834;2024-02-15T14:51:35;97818.50;;;16.26;74.60
22181;BME280;11256;50.830;12.834;2024-02-15T14:56:37;97828.19;;;16.32;74.57
22181;BME280;11256;50.830;12.834;2024-02-15T15:01:38;97825.94;;;16.34;74.50
22181;BME280;11256;50.830;12.834;2024-02-15T15:06:44;97814.38;;;16.37;74.51
22181;BME280;11256;50.830;12.834;2024-02-15T15:12:03;97814.91;;;16.39;74.05
22181;BME280;11256;50.830;12.834;2024-02-15T15:17:22;97807.22;;;16.41;74.17
22181;BME280;11256;50.830;12.834;2024-02-15T15:22:26;97799.59;;;16.38;73.71
22181;BME280;11256;50.830;12.834;2024-02-15T15:27:27;97797.00;;;16.33;73.47
22181;BME280;11256;50.830;12.834;2024-02-15T15:32:27;97799.06;;;16.27;73.39
22181;BME280;11256;50.830;12.834;2024-02-15T15:37:28;97799.50;;;16.21;73.45
22181;BME280;11256;50.830;12.834;2024-02-15T15:42:29;97803.50;;;16.15;73.38
22181;BME280;11256;50.830;12.834;2024-02-15T15:47:30;97794.94;;;16.08;73.12
22181;BME280;11256;50.830;12.834;2024-02-15T15:52:31;97788.91;;;15.97;73.21
22181;BME280;11256;50.830;12.834;2024-02-15T15:57:31;97781.16;;;15.91;73.38
22181;BME280;11256;50.830;12.834;2024-02-15T16:02:32;97778.03;;;15.84;73.09
22181;BME280;11256;50.830;12.834;2024-02-15T16:07:33;97780.91;;;15.79;72.89
22181;BME280;11256;50.830;12.834;2024-02-15T16:12:37;97786.00;;;15.72;72.85
22181;BME280;11256;50.830;12.834;2024-02-15T16:17:42;97788.38;;;15.65;72.89
22181;BME280;11256;50.830;12.834;2024-02-15T16:22:43;97792.16;;;15.55;72.98
22181;BME280;11256;50.830;12.834;2024-02-15T16:27:45;97782.78;;;15.48;72.93
22181;BME280;11256;50.830;12.834;2024-02-15T16:32:47;97775.59;;;15.38;72.88
22181;BME280;11256;50.830;12.834;2024-02-15T16:37:48;97785.34;;;15.31;73.05
22181;BME280;11256;50.830;12.834;2024-02-15T16:42:50;97780.59;;;15.23;73.07
22181;BME280;11256;50.830;12.834;2024-02-15T16:47:53;97781.44;;;15.10;73.11
22181;BME280;11256;50.830;12.834;2024-02-15T16:52:56;97780.53;;;15.01;72.98
22181;BME280;11256;50.830;12.834;2024-02-15T16:57:57;97788.94;;;14.91;72.99
22181;BME280;11256;50.830;12.834;2024-02-15T17:03:02;97779.56;;;14.83;73.04
22181;BME280;11256;50.830;12.834;2024-02-15T17:08:06;97770.16;;;14.76;72.92
22181;BME280;11256;50.830;12.834;2024-02-15T17:13:07;97777.47;;;14.67;72.98
22181;BME280;11256;50.830;12.834;2024-02-15T17:18:08;97778.25;;;14.54;73.02
22181;BME280;11256;50.830;12.834;2024-02-15T17:23:09;97783.31;;;14.47;73.19
22181;BME280;11256;50.830;12.834;2024-02-15T17:28:10;97782.91;;;14.40;72.99
22181;BME280;11256;50.830;12.834;2024-02-15T17:33:11;97780.88;;;14.32;73.33
22181;BME280;11256;50.830;12.834;2024-02-15T17:38:14;97775.63;;;14.22;73.29
22181;BME280;11256;50.830;12.834;2024-02-15T17:43:14;97779.50;;;14.16;73.14
22181;BME280;11256;50.830;12.834;2024-02-15T17:48:15;97777.69;;;14.11;73.25
22181;BME280;11256;50.830;12.834;2024-02-15T17:53:20;97776.66;;;14.07;73.23
22181;BME280;11256;50.830;12.834;2024-02-15T17:58:21;97795.53;;;14.04;73.27
22181;BME280;11256;50.830;12.834;2024-02-15T18:03:23;97801.69;;;13.96;73.19
22181;BME280;11256;50.830;12.834;2024-02-15T18:08:26;97799.06;;;13.91;73.07
22181;BME280;11256;50.830;12.834;2024-02-15T18:13:28;97790.56;;;13.79;72.55
22181;BME280;11256;50.830;12.834;2024-02-15T18:18:29;97790.94;;;13.72;72.98
22181;BME280;11256;50.830;12.834;2024-02-15T18:23:30;97776.88;;;13.65;72.93
22181;BME280;11256;50.830;12.834;2024-02-15T18:28:31;97766.06;;;13.60;72.90
22181;BME280;11256;50.830;12.834;2024-02-15T18:33:32;97750.72;;;13.51;72.88
22181;BME280;11256;50.830;12.834;2024-02-15T18:38:34;97762.34;;;13.38;72.91
22181;BME280;11256;50.830;12.834;2024-02-15T18:43:35;97751.63;;;13.28;72.81
22181;BME280;11256;50.830;12.834;2024-02-15T18:48:36;97746.56;;;13.21;72.99
22181;BME280;11256;50.830;12.834;2024-02-15T18:53:40;97749.16;;;13.13;73.10
22181;BME280;11256;50.830;12.834;2024-02-15T18:58:42;97756.00;;;13.10;73.02
22181;BME280;11256;50.830;12.834;2024-02-15T19:03:43;97757.44;;;13.03;73.17
22181;BME280;11256;50.830;12.834;2024-02-15T19:08:44;97750.19;;;12.93;73.11
22181;BME280;11256;50.830;12.834;2024-02-15T19:13:45;97755.41;;;12.90;73.25
22181;BME280;11256;50.830;12.834;2024-02-15T19:18:45;97754.69;;;12.84;73.17
22181;BME280;11256;50.830;12.834;2024-02-15T19:23:46;97749.31;;;12.79;73.23
22181;BME280;11256;50.830;12.834;2024-02-15T19:28:47;97743.44;;;12.72;73.13
22181;BME280;11256;50.830;12.834;2024-02-15T19:33:48;97741.91;;;12.66;73.23
22181;BME280;11256;50.830;12.834;2024-02-15T19:38:50;97743.34;;;12.59;73.24
22181;BME280;11256;50.830;12.834;2024-02-15T19:43:51;97734.00;;;12.46;73.42
22181;BME280;11256;50.830;12.834;2024-02-15T19:48:52;97750.59;;;12.45;73.26
22181;BME280;11256;50.830;12.834;2024-02-15T19:53:54;97743.59;;;12.39;73.18
22181;BME280;11256;50.830;12.834;2024-02-15T19:58:55;97756.41;;;12.33;73.22
22181;BME280;11256;50.830;12.834;2024-02-15T20:03:56;97746.47;;;12.24;73.30
22181;BME280;11256;50.830;12.834;2024-02-15T20:08:57;97743.81;;;12.19;73.06
22181;BME280;11256;50.830;12.834;2024-02-15T20:13:59;97740.16;;;12.10;73.34
22181;BME280;11256;50.830;12.834;2024-02-15T20:19:02;97733.44;;;12.02;73.19
22181;BME280;11256;50.830;12.834;2024-02-15T20:24:03;97726.72;;;11.95;73.36
22181;BME280;11256;50.830;12.834;2024-02-15T20:29:05;97720.56;;;11.84;73.65
22181;BME280;11256;50.830;12.834;2024-02-15T20:34:06;97726.88;;;11.80;73.36
22181;BME280;11256;50.830;12.834;2024-02-15T20:39:07;97718.81;;;11.70;73.64
22181;BME280;11256;50.830;12.834;2024-02-15T20:44:08;97722.97;;;11.62;73.75
22181;BME280;11256;50.830;12.834;2024-02-15T20:49:13;97707.56;;;11.53;73.89
22181;BME280;11256;50.830;12.834;2024-02-15T20:54:15;97701.94;;;11.44;73.79
22181;BME280;11256;50.830;12.834;2024-02-15T20:59:16;97704.97;;;11.38;74.06
22181;BME280;11256;50.830;12.834;2024-02-15T21:04:16;97696.38;;;11.31;73.81
22181;BME280;11256;50.830;12.834;2024-02-15T21:09:17;97695.91;;;11.24;73.81
22181;BME280;11256;50.830;12.834;2024-02-15T21:14:19;97686.47;;;11.16;73.88
22181;BME280;11256;50.830;12.834;2024-02-15T21:19:19;97685.16;;;11.09;74.28
22181;BME280;11256;50.830;12.834;2024-02-15T21:24:20;97676.00;;;11.00;74.41
22181;BME280;11256;50.830;12.834;2024-02-15T21:29:21;97668.22;;;10.93;74.42
22181;BME280;11256;50.830;12.834;2024-02-15T21:34:22;97664.19;;;10.86;74.31
22181;BME280;11256;50.830;12.834;2024-02-15T21:39:23;97658.31;;;10.79;74.21
22181;BME280;11256;50.830;12.834;2024-02-15T21:44:25;97657.25;;;10.70;74.46
22181;BME280;11256;50.830;12.834;2024-02-15T21:49:25;97644.28;;;10.62;74.34
22181;BME280;11256;50.830;12.834;2024-02-15T21:54:26;97638.94;;;10.57;74.67
22181;BME280;11256;50.830;12.834;2024-02-15T21:59:27;97643.84;;;10.50;74.58
22181;BME280;11256;50.830;12.834;2024-02-15T22:04:28;97645.78;;;10.44;74.74
22181;BME280;11256;50.830;12.834;2024-02-15T22:09:29;97641.25;;;10.35;74.52
22181;BME280;11256;50.830;12.834;2024-02-15T22:14:31;97631.00;;;10.27;74.37
22181;BME280;11256;50.830;12.834;2024-02-15T22:19:33;97642.41;;;10.19;74.59
22181;BME280;11256;50.830;12.834;2024-02-15T22:24:34;97645.16;;;10.14;74.54
22181;BME280;11256;50.830;12.834;2024-02-15T22:29:35;97639.22;;;10.07;74.50
22181;BME280;11256;50.830;12.834;2024-02-15T22:34:36;97640.28;;;10.01;74.60
22181;BME280;11256;50.830;12.834;2024-02-15T22:39:37;97636.00;;;9.95;74.92
22181;BME280;11256;50.830;12.834;2024-02-15T22:44:37;97633.06;;;9.86;74.53
22181;BME280;11256;50.830;12.834;2024-02-15T22:49:38;97643.63;;;9.83;74.50
22181;BME280;11256;50.830;12.834;2024-02-15T22:54:38;97632.84;;;9.73;74.64
22181;BME280;11256;50.830;12.834;2024-02-15T22:59:42;97634.47;;;9.69;74.77
22181;BME280;11256;50.830;12.834;2024-02-15T23:04:43;97629.88;;;9.64;74.81
22181;BME280;11256;50.830;12.834;2024-02-15T23:09:43;97629.09;;;9.59;74.80
22181;BME280;11256;50.830;12.834;2024-02-15T23:14:44;97631.00;;;9.53;74.62
22181;BME280;11256;50.830;12.834;2024-02-15T23:19:45;97634.53;;;9.49;74.66
22181;BME280;11256;50.830;12.834;2024-02-15T23:24:45;97615.06;;;9.42;74.82
22181;BME280;11256;50.830;12.834;2024-02-15T23:29:46;97609.16;;;9.35;74.84
22181;BME280;11256;50.830;12.834;2024-02-15T23:34:46;97618.63;;;9.32;74.54
22181;BME280;11256;50.830;12.834;2024-02-15T23:39:47;97617.84;;;9.27;74.97
22181;BME280;11256;50.830;12.834;2024-02-15T23:45:07;97602.72;;;9.11;74.82
22181;BME280;11256;50.830;12.834;2024-02-15T23:50:08;97623.25;;;9.17;74.85
22181;BME280;11256;50.830;12.834;2024-02-15T23:55:16;97610.28;;;9.09;74.75
